sensor_id;sensor_type;location;lat;lon;timestamp;P1;durP1;ratioP1;P2;durP2;ratioP2
39032;SDS011;24794;51.982;5.878;2023-04-06T00:00:32;8.30;;;5.20;;
39032;SDS011;24794;51.982;5.878;2023-04-06T00:01:33;8.65;;;4.60;;
39032;SDS011;24794;51.982;5.878;2023-04-06T00:02:34;9.23;;;4.90;;
39032;SDS011;24794;51.982;5.878;2023-04-06T00:03:35;9.00;;;5.05;;
39032;SDS011;24794;51.982;5.878;2023-04-06T00:04:36;8.50;;;5.03;;
39032;SDS011;24794;51.982;5.878;2023-04-06T00:05:37;9.80;;;4.72;;
39032;SDS011;24794;51.982;5.878;2023-04-06T00:06:37;7.60;;;4.75;;
39032;SDS011;24794;51.982;5.878;2023-04-06T00:07:38;8.77;;;5.10;;
39032;SDS011;24794;51.982;5.878;2023-04-06T00:08:38;7.35;;;4.80;;
39032;SDS011;24794;51.982;5.878;2023-04-06T00:09:39;10.00;;;6.15;;
39032;SDS011;24794;51.982;5.878;2023-04-06T00:10:40;8.05;;;4.50;;
39032;SDS011;24794;51.982;5.878;2023-04-06T00:11:40;6.80;;;4.38;;
39032;SDS011;24794;51.982;5.878;2023-04-06T00:12:41;6.13;;;4.10;;
39032;SDS011;24794;51.982;5.878;2023-04-06T00:13:41;8.80;;;5.18;;
39032;SDS011;24794;51.982;5.878;2023-04-06T00:14:42;9.00;;;5.78;;
39032;SDS011;24794;51.982;5.878;2023-04-06T00:15:43;8.20;;;4.78;;
39032;SDS011;24794;51.982;5.878;2023-04-06T00:16:43;7.82;;;5.35;;
39032;SDS011;24794;51.982;5.878;2023-04-06T00:17:44;9.25;;;4.88;;
39032;SDS011;24794;51.982;5.878;2023-04-06T00:18:44;8.80;;;5.15;;
39032;SDS011;24794;51.982;5.878;2023-04-06T00:19:45;8.18;;;5.28;;
39032;SDS011;24794;51.982;5.878;2023-04-06T00:20:46;7.93;;;5.10;;
39032;SDS011;24794;51.982;5.878;2023-04-06T00:21:46;6.63;;;4.40;;
39032;SDS011;24794;51.982;5.878;2023-04-06T00:22:47;10.50;;;5.88;;
39032;SDS011;24794;51.982;5.878;2023-04-06T00:23:48;6.72;;;4.47;;
39032;SDS011;24794;51.982;5.878;2023-04-06T00:24:48;7.63;;;5.10;;
39032;SDS011;24794;51.982;5.878;2023-04-06T00:25:49;7.07;;;4.97;;
39032;SDS011;24794;51.982;5.878;2023-04-06T00:26:49;7.70;;;5.07;;
39032;SDS011;24794;51.982;5.878;2023-04-06T00:27:50;9.00;;;5.63;;
39032;SDS011;24794;51.982;5.878;2023-04-06T00:28:50;8.52;;;4.78;;
39032;SDS011;24794;51.982;5.878;2023-04-06T00:29:52;7.10;;;4.82;;
39032;SDS011;24794;51.982;5.878;2023-04-06T00:30:53;10.25;;;5.20;;
39032;SDS011;24794;51.982;5.878;2023-04-06T00:31:55;8.40;;;5.05;;
39032;SDS011;24794;51.982;5.878;2023-04-06T00:32:55;8.90;;;5.57;;
39032;SDS011;24794;51.982;5.878;2023-04-06T00:33:57;7.85;;;5.00;;
39032;SDS011;24794;51.982;5.878;2023-04-06T00:34:58;8.85;;;5.40;;
39032;SDS011;24794;51.982;5.878;2023-04-06T00:35:58;8.13;;;5.57;;
39032;SDS011;24794;51.982;5.878;2023-04-06T00:36:59;7.38;;;5.05;;
39032;SDS011;24794;51.982;5.878;2023-04-06T00:38:00;6.72;;;4.88;;
39032;SDS011;24794;51.982;5.878;2023-04-06T00:39:00;7.20;;;4.93;;
39032;SDS011;24794;51.982;5.878;2023-04-06T00:40:01;8.80;;;5.05;;
39032;SDS011;24794;51.982;5.878;2023-04-06T00:41:03;8.18;;;5.03;;
39032;SDS011;24794;51.982;5.878;2023-04-06T00:42:07;7.72;;;4.45;;
39032;SDS011;24794;51.982;5.878;2023-04-06T00:43:13;7.50;;;4.95;;
39032;SDS011;24794;51.982;5.878;2023-04-06T00:44:13;8.38;;;4.80;;
39032;SDS011;24794;51.982;5.878;2023-04-06T00:45:14;6.63;;;4.57;;
39032;SDS011;24794;51.982;5.878;2023-04-06T00:46:15;7.82;;;4.95;;
39032;SDS011;24794;51.982;5.878;2023-04-06T00:47:15;6.40;;;4.55;;
39032;SDS011;24794;51.982;5.878;2023-04-06T00:48:16;8.25;;;5.00;;
39032;SDS011;24794;51.982;5.878;2023-04-06T00:49:16;10.18;;;5.55;;
39032;SDS011;24794;51.982;5.878;2023-04-06T00:50:17;9.55;;;5.70;;
39032;SDS011;24794;51.982;5.878;2023-04-06T00:51:18;9.45;;;5.10;;
39032;SDS011;24794;51.982;5.878;2023-04-06T00:52:18;8.60;;;5.25;;
39032;SDS011;24794;51.982;5.878;2023-04-06T00:53:19;10.75;;;5.53;;
39032;SDS011;24794;51.982;5.878;2023-04-06T00:54:20;12.38;;;6.10;;
39032;SDS011;24794;51.982;5.878;2023-04-06T00:55:20;8.48;;;5.55;;
39032;SDS011;24794;51.982;5.878;2023-04-06T00:56:21;9.65;;;6.28;;
39032;SDS011;24794;51.982;5.878;2023-04-06T00:57:23;9.63;;;5.47;;
39032;SDS011;24794;51.982;5.878;2023-04-06T00:58:24;7.70;;;5.20;;
39032;SDS011;24794;51.982;5.878;2023-04-06T00:59:24;7.32;;;5.28;;
39032;SDS011;24794;51.982;5.878;2023-04-06T01:00:27;9.55;;;5.45;;
39032;SDS011;24794;51.982;5.878;2023-04-06T01:01:28;10.05;;;5.70;;
39032;SDS011;24794;51.982;5.878;2023-04-06T01:02:29;9.73;;;5.70;;
39032;SDS011;24794;51.982;5.878;2023-04-06T01:03:30;9.82;;;6.03;;
39032;SDS011;24794;51.982;5.878;2023-04-06T01:04:31;9.82;;;5.65;;
39032;SDS011;24794;51.982;5.878;2023-04-06T01:05:33;9.85;;;5.93;;
39032;SDS011;24794;51.982;5.878;2023-04-06T01:06:40;9.18;;;5.88;;
39032;SDS011;24794;51.982;5.878;2023-04-06T01:07:40;8.98;;;5.53;;
39032;SDS011;24794;51.982;5.878;2023-04-06T01:08:41;9.27;;;6.15;;
39032;SDS011;24794;51.982;5.878;2023-04-06T01:09:42;9.07;;;5.97;;
39032;SDS011;24794;51.982;5.878;2023-04-06T01:10:42;7.80;;;5.07;;
39032;SDS011;24794;51.982;5.878;2023-04-06T01:11:43;6.85;;;4.90;;
39032;SDS011;24794;51.982;5.878;2023-04-06T01:12:43;7.55;;;4.63;;
39032;SDS011;24794;51.982;5.878;2023-04-06T01:13:44;9.43;;;5.50;;
39032;SDS011;24794;51.982;5.878;2023-04-06T01:14:44;8.85;;;5.50;;
39032;SDS011;24794;51.982;5.878;2023-04-06T01:15:45;11.20;;;6.72;;
39032;SDS011;24794;51.982;5.878;2023-04-06T01:16:46;7.30;;;5.20;;
39032;SDS011;24794;51.982;5.878;2023-04-06T01:17:47;10.38;;;6.45;;
39032;SDS011;24794;51.982;5.878;2023-04-06T01:18:48;10.13;;;6.22;;
39032;SDS011;24794;51.982;5.878;2023-04-06T01:19:48;12.38;;;5.85;;
39032;SDS011;24794;51.982;5.878;2023-04-06T01:20:53;9.63;;;6.50;;
39032;SDS011;24794;51.982;5.878;2023-04-06T01:21:54;10.07;;;6.15;;
39032;SDS011;24794;51.982;5.878;2023-04-06T01:22:55;10.25;;;6.28;;
39032;SDS011;24794;51.982;5.878;2023-04-06T01:23:55;9.40;;;5.82;;
39032;SDS011;24794;51.982;5.878;2023-04-06T01:24:56;11.73;;;6.28;;
39032;SDS011;24794;51.982;5.878;2023-04-06T01:25:56;11.65;;;6.18;;
39032;SDS011;24794;51.982;5.878;2023-04-06T01:26:57;9.23;;;5.70;;
39032;SDS011;24794;51.982;5.878;2023-04-06T01:27:57;10.13;;;5.93;;
39032;SDS011;24794;51.982;5.878;2023-04-06T01:28:58;9.75;;;6.05;;
39032;SDS011;24794;51.982;5.878;2023-04-06T01:29:58;10.57;;;5.38;;
39032;SDS011;24794;51.982;5.878;2023-04-06T01:30:59;10.10;;;6.15;;
39032;SDS011;24794;51.982;5.878;2023-04-06T01:32:00;10.57;;;6.00;;
39032;SDS011;24794;51.982;5.878;2023-04-06T01:33:00;7.20;;;4.72;;
39032;SDS011;24794;51.982;5.878;2023-04-06T01:34:01;8.63;;;5.13;;
39032;SDS011;24794;51.982;5.878;2023-04-06T01:35:01;8.95;;;5.93;;
39032;SDS011;24794;51.982;5.878;2023-04-06T01:36:03;9.07;;;5.82;;
39032;SDS011;24794;51.982;5.878;2023-04-06T01:37:03;8.90;;;5.57;;
39032;SDS011;24794;51.982;5.878;2023-04-06T01:38:04;10.20;;;5.55;;
39032;SDS011;24794;51.982;5.878;2023-04-06T01:39:05;10.77;;;6.53;;
39032;SDS011;24794;51.982;5.878;2023-04-06T01:40:06;8.98;;;5.90;;
39032;SDS011;24794;51.982;5.878;2023-04-06T01:41:07;8.68;;;5.20;;
39032;SDS011;24794;51.982;5.878;2023-04-06T01:42:08;10.90;;;6.38;;
39032;SDS011;24794;51.982;5.878;2023-04-06T01:43:08;8.20;;;5.43;;
39032;SDS011;24794;51.982;5.878;2023-04-06T01:44:09;9.07;;;5.78;;
39032;SDS011;24794;51.982;5.878;2023-04-06T01:45:10;9.65;;;6.30;;
39032;SDS011;24794;51.982;5.878;2023-04-06T01:46:10;10.52;;;6.00;;
39032;SDS011;24794;51.982;5.878;2023-04-06T01:47:11;9.15;;;6.18;;
39032;SDS011;24794;51.982;5.878;2023-04-06T01:48:11;10.02;;;6.38;;
39032;SDS011;24794;51.982;5.878;2023-04-06T01:49:12;9.50;;;5.63;;
39032;SDS011;24794;51.982;5.878;2023-04-06T01:50:13;9.00;;;5.40;;
39032;SDS011;24794;51.982;5.878;2023-04-06T01:51:13;10.20;;;6.18;;
39032;SDS011;24794;51.982;5.878;2023-04-06T01:52:14;7.80;;;5.35;;
39032;SDS011;24794;51.982;5.878;2023-04-06T01:53:15;8.15;;;5.10;;
39032;SDS011;24794;51.982;5.878;2023-04-06T01:54:16;9.00;;;5.95;;
39032;SDS011;24794;51.982;5.878;2023-04-06T01:55:16;9.45;;;6.18;;
39032;SDS011;24794;51.982;5.878;2023-04-06T01:56:17;10.23;;;6.00;;
39032;SDS011;24794;51.982;5.878;2023-04-06T01:57:17;7.28;;;5.25;;
39032;SDS011;24794;51.982;5.878;2023-04-06T01:58:18;10.02;;;5.80;;
39032;SDS011;24794;51.982;5.878;2023-04-06T01:59:19;8.00;;;5.03;;
39032;SDS011;24794;51.982;5.878;2023-04-06T02:00:19;8.85;;;5.57;;
39032;SDS011;24794;51.982;5.878;2023-04-06T02:01:20;8.85;;;5.82;;
39032;SDS011;24794;51.982;5.878;2023-04-06T02:02:21;11.50;;;6.30;;
39032;SDS011;24794;51.982;5.878;2023-04-06T02:03:21;8.00;;;5.43;;
39032;SDS011;24794;51.982;5.878;2023-04-06T02:04:22;9.75;;;5.93;;
39032;SDS011;24794;51.982;5.878;2023-04-06T02:05:22;9.70;;;5.60;;
39032;SDS011;24794;51.982;5.878;2023-04-06T02:06:23;10.68;;;6.85;;
39032;SDS011;24794;51.982;5.878;2023-04-06T02:07:23;8.80;;;5.60;;
39032;SDS011;24794;51.982;5.878;2023-04-06T02:08:24;9.50;;;6.10;;
39032;SDS011;24794;51.982;5.878;2023-04-06T02:09:25;8.63;;;5.90;;
39032;SDS011;24794;51.982;5.878;2023-04-06T02:10:25;10.30;;;6.28;;
39032;SDS011;24794;51.982;5.878;2023-04-06T02:11:26;11.45;;;6.20;;
39032;SDS011;24794;51.982;5.878;2023-04-06T02:12:26;7.80;;;4.97;;
39032;SDS011;24794;51.982;5.878;2023-04-06T02:13:27;10.60;;;5.55;;
39032;SDS011;24794;51.982;5.878;2023-04-06T02:14:27;8.90;;;6.10;;
39032;SDS011;24794;51.982;5.878;2023-04-06T02:15:28;8.80;;;6.07;;
39032;SDS011;24794;51.982;5.878;2023-04-06T02:16:28;10.15;;;6.30;;
39032;SDS011;24794;51.982;5.878;2023-04-06T02:17:29;9.98;;;6.10;;
39032;SDS011;24794;51.982;5.878;2023-04-06T02:18:30;8.38;;;5.65;;
39032;SDS011;24794;51.982;5.878;2023-04-06T02:19:31;9.93;;;6.15;;
39032;SDS011;24794;51.982;5.878;2023-04-06T02:20:31;9.18;;;6.50;;
39032;SDS011;24794;51.982;5.878;2023-04-06T02:21:32;10.43;;;5.68;;
39032;SDS011;24794;51.982;5.878;2023-04-06T02:22:32;8.65;;;5.32;;
39032;SDS011;24794;51.982;5.878;2023-04-06T02:23:33;9.10;;;5.85;;
39032;SDS011;24794;51.982;5.878;2023-04-06T02:24:34;7.75;;;5.50;;
39032;SDS011;24794;51.982;5.878;2023-04-06T02:25:35;9.65;;;6.03;;
39032;SDS011;24794;51.982;5.878;2023-04-06T02:26:36;9.80;;;6.18;;
39032;SDS011;24794;51.982;5.878;2023-04-06T02:27:36;10.18;;;6.40;;
39032;SDS011;24794;51.982;5.878;2023-04-06T02:28:37;9.50;;;5.40;;
39032;SDS011;24794;51.982;5.878;2023-04-06T02:29:37;8.07;;;5.55;;
39032;SDS011;24794;51.982;5.878;2023-04-06T02:30:38;10.65;;;6.43;;
39032;SDS011;24794;51.982;5.878;2023-04-06T02:31:39;11.55;;;6.50;;
39032;SDS011;24794;51.982;5.878;2023-04-06T02:32:39;10.95;;;5.97;;
39032;SDS011;24794;51.982;5.878;2023-04-06T02:33:40;7.82;;;5.15;;
39032;SDS011;24794;51.982;5.878;2023-04-06T02:34:40;9.05;;;5.65;;
39032;SDS011;24794;51.982;5.878;2023-04-06T02:35:41;8.15;;;4.95;;
39032;SDS011;24794;51.982;5.878;2023-04-06T02:36:41;9.13;;;6.10;;
39032;SDS011;24794;51.982;5.878;2023-04-06T02:37:42;9.43;;;5.57;;
39032;SDS011;24794;51.982;5.878;2023-04-06T02:38:42;8.82;;;5.63;;
39032;SDS011;24794;51.982;5.878;2023-04-06T02:39:43;10.30;;;6.03;;
39032;SDS011;24794;51.982;5.878;2023-04-06T02:40:44;12.30;;;5.78;;
39032;SDS011;24794;51.982;5.878;2023-04-06T02:41:44;9.55;;;5.63;;
39032;SDS011;24794;51.982;5.878;2023-04-06T02:42:45;11.18;;;6.97;;
39032;SDS011;24794;51.982;5.878;2023-04-06T02:43:46;9.40;;;5.70;;
39032;SDS011;24794;51.982;5.878;2023-04-06T02:44:46;8.25;;;5.38;;
39032;SDS011;24794;51.982;5.878;2023-04-06T02:45:47;11.05;;;6.22;;
39032;SDS011;24794;51.982;5.878;2023-04-06T02:46:47;9.95;;;6.70;;
39032;SDS011;24794;51.982;5.878;2023-04-06T02:47:48;9.55;;;6.32;;
39032;SDS011;24794;51.982;5.878;2023-04-06T02:48:48;10.80;;;5.70;;
39032;SDS011;24794;51.982;5.878;2023-04-06T02:49:49;9.77;;;5.78;;
39032;SDS011;24794;51.982;5.878;2023-04-06T02:50:49;9.73;;;6.70;;
39032;SDS011;24794;51.982;5.878;2023-04-06T02:51:50;9.45;;;6.28;;
39032;SDS011;24794;51.982;5.878;2023-04-06T02:52:51;11.05;;;6.75;;
39032;SDS011;24794;51.982;5.878;2023-04-06T02:53:52;12.13;;;7.03;;
39032;SDS011;24794;51.982;5.878;2023-04-06T02:54:53;11.18;;;6.85;;
39032;SDS011;24794;51.982;5.878;2023-04-06T02:55:53;11.07;;;6.80;;
39032;SDS011;24794;51.982;5.878;2023-04-06T02:56:55;10.02;;;6.47;;
39032;SDS011;24794;51.982;5.878;2023-04-06T02:57:56;11.43;;;7.15;;
39032;SDS011;24794;51.982;5.878;2023-04-06T02:58:56;9.55;;;5.97;;
39032;SDS011;24794;51.982;5.878;2023-04-06T02:59:57;9.80;;;6.32;;
39032;SDS011;24794;51.982;5.878;2023-04-06T03:00:57;9.40;;;6.43;;
39032;SDS011;24794;51.982;5.878;2023-04-06T03:01:58;9.00;;;5.90;;
39032;SDS011;24794;51.982;5.878;2023-04-06T03:02:58;12.63;;;6.63;;
39032;SDS011;24794;51.982;5.878;2023-04-06T03:03:59;11.82;;;7.15;;
39032;SDS011;24794;51.982;5.878;2023-04-06T03:05:00;11.95;;;6.63;;
39032;SDS011;24794;51.982;5.878;2023-04-06T03:06:00;10.07;;;6.32;;
39032;SDS011;24794;51.982;5.878;2023-04-06T03:07:01;13.68;;;7.43;;
39032;SDS011;24794;51.982;5.878;2023-04-06T03:08:02;10.65;;;6.43;;
39032;SDS011;24794;51.982;5.878;2023-04-06T03:09:02;11.27;;;6.88;;
39032;SDS011;24794;51.982;5.878;2023-04-06T03:10:03;10.25;;;6.30;;
39032;SDS011;24794;51.982;5.878;2023-04-06T03:11:04;9.02;;;5.78;;
39032;SDS011;24794;51.982;5.878;2023-04-06T03:12:05;11.50;;;6.95;;
39032;SDS011;24794;51.982;5.878;2023-04-06T03:13:06;11.77;;;6.82;;
39032;SDS011;24794;51.982;5.878;2023-04-06T03:14:06;11.18;;;6.57;;
39032;SDS011;24794;51.982;5.878;2023-04-06T03:15:07;9.82;;;6.57;;
39032;SDS011;24794;51.982;5.878;2023-04-06T03:16:08;10.18;;;6.43;;
39032;SDS011;24794;51.982;5.878;2023-04-06T03:17:09;9.98;;;6.35;;
39032;SDS011;24794;51.982;5.878;2023-04-06T03:18:10;12.27;;;6.28;;
39032;SDS011;24794;51.982;5.878;2023-04-06T03:19:10;10.90;;;6.50;;
39032;SDS011;24794;51.982;5.878;2023-04-06T03:20:11;10.07;;;6.65;;
39032;SDS011;24794;51.982;5.878;2023-04-06T03:21:11;10.10;;;6.20;;
39032;SDS011;24794;51.982;5.878;2023-04-06T03:22:12;9.43;;;5.93;;
39032;SDS011;24794;51.982;5.878;2023-04-06T03:23:13;15.20;;;7.15;;
39032;SDS011;24794;51.982;5.878;2023-04-06T03:24:13;9.35;;;5.75;;
39032;SDS011;24794;51.982;5.878;2023-04-06T03:25:14;10.60;;;6.22;;
39032;SDS011;24794;51.982;5.878;2023-04-06T03:26:15;10.25;;;6.25;;
39032;SDS011;24794;51.982;5.878;2023-04-06T03:27:15;14.98;;;7.10;;
39032;SDS011;24794;51.982;5.878;2023-04-06T03:28:16;11.00;;;6.50;;
39032;SDS011;24794;51.982;5.878;2023-04-06T03:29:16;11.82;;;6.80;;
39032;SDS011;24794;51.982;5.878;2023-04-06T03:30:17;10.32;;;6.45;;
39032;SDS011;24794;51.982;5.878;2023-04-06T03:31:17;11.68;;;6.65;;
39032;SDS011;24794;51.982;5.878;2023-04-06T03:32:18;12.50;;;7.18;;
39032;SDS011;24794;51.982;5.878;2023-04-06T03:33:19;12.25;;;6.90;;
39032;SDS011;24794;51.982;5.878;2023-04-06T03:34:19;10.95;;;6.53;;
39032;SDS011;24794;51.982;5.878;2023-04-06T03:35:20;10.63;;;6.35;;
39032;SDS011;24794;51.982;5.878;2023-04-06T03:36:20;9.85;;;6.47;;
39032;SDS011;24794;51.982;5.878;2023-04-06T03:37:21;10.98;;;6.45;;
39032;SDS011;24794;51.982;5.878;2023-04-06T03:38:21;11.05;;;6.18;;
39032;SDS011;24794;51.982;5.878;2023-04-06T03:39:22;10.40;;;6.40;;
39032;SDS011;24794;51.982;5.878;2023-04-06T03:40:22;12.02;;;6.72;;
39032;SDS011;24794;51.982;5.878;2023-04-06T03:41:23;11.25;;;7.30;;
39032;SDS011;24794;51.982;5.878;2023-04-06T03:42:23;10.65;;;6.43;;
39032;SDS011;24794;51.982;5.878;2023-04-06T03:43:24;11.10;;;7.00;;
39032;SDS011;24794;51.982;5.878;2023-04-06T03:44:25;10.90;;;6.93;;
39032;SDS011;24794;51.982;5.878;2023-04-06T03:45:25;13.68;;;7.45;;
39032;SDS011;24794;51.982;5.878;2023-04-06T03:46:26;11.77;;;7.43;;
39032;SDS011;24794;51.982;5.878;2023-04-06T03:47:26;14.07;;;7.22;;
39032;SDS011;24794;51.982;5.878;2023-04-06T03:48:27;10.88;;;7.03;;
39032;SDS011;24794;51.982;5.878;2023-04-06T03:49:27;11.95;;;7.15;;
39032;SDS011;24794;51.982;5.878;2023-04-06T03:50:28;11.98;;;6.60;;
39032;SDS011;24794;51.982;5.878;2023-04-06T03:51:28;11.05;;;7.05;;
39032;SDS011;24794;51.982;5.878;2023-04-06T03:52:29;12.80;;;7.10;;
39032;SDS011;24794;51.982;5.878;2023-04-06T03:53:30;9.90;;;6.47;;
39032;SDS011;24794;51.982;5.878;2023-04-06T03:54:30;10.68;;;6.40;;
39032;SDS011;24794;51.982;5.878;2023-04-06T03:55:31;9.25;;;5.85;;
39032;SDS011;24794;51.982;5.878;2023-04-06T03:56:32;11.07;;;7.30;;
39032;SDS011;24794;51.982;5.878;2023-04-06T03:57:32;10.50;;;6.38;;
39032;SDS011;24794;51.982;5.878;2023-04-06T03:58:33;11.38;;;6.70;;
39032;SDS011;24794;51.982;5.878;2023-04-06T03:59:33;12.52;;;6.68;;
39032;SDS011;24794;51.982;5.878;2023-04-06T04:00:34;11.05;;;6.53;;
39032;SDS011;24794;51.982;5.878;2023-04-06T04:01:34;10.90;;;6.32;;
39032;SDS011;24794;51.982;5.878;2023-04-06T04:02:35;10.25;;;6.35;;
39032;SDS011;24794;51.982;5.878;2023-04-06T04:03:35;12.50;;;5.75;;
39032;SDS011;24794;51.982;5.878;2023-04-06T04:04:36;11.40;;;6.65;;
39032;SDS011;24794;51.982;5.878;2023-04-06T04:05:36;10.02;;;6.70;;
39032;SDS011;24794;51.982;5.878;2023-04-06T04:06:37;10.45;;;6.78;;
39032;SDS011;24794;51.982;5.878;2023-04-06T04:07:37;11.82;;;6.70;;
39032;SDS011;24794;51.982;5.878;2023-04-06T04:08:38;11.25;;;7.43;;
39032;SDS011;24794;51.982;5.878;2023-04-06T04:09:39;11.75;;;7.38;;
39032;SDS011;24794;51.982;5.878;2023-04-06T04:10:40;13.23;;;7.55;;
39032;SDS011;24794;51.982;5.878;2023-04-06T04:11:40;11.77;;;7.55;;
39032;SDS011;24794;51.982;5.878;2023-04-06T04:12:41;12.63;;;7.43;;
39032;SDS011;24794;51.982;5.878;2023-04-06T04:13:41;12.32;;;7.20;;
39032;SDS011;24794;51.982;5.878;2023-04-06T04:14:42;12.20;;;6.97;;
39032;SDS011;24794;51.982;5.878;2023-04-06T04:15:43;10.60;;;7.05;;
39032;SDS011;24794;51.982;5.878;2023-04-06T04:16:44;11.45;;;7.05;;
39032;SDS011;24794;51.982;5.878;2023-04-06T04:17:44;11.32;;;7.28;;
39032;SDS011;24794;51.982;5.878;2023-04-06T04:18:46;12.75;;;7.32;;
39032;SDS011;24794;51.982;5.878;2023-04-06T04:19:48;11.55;;;7.65;;
39032;SDS011;24794;51.982;5.878;2023-04-06T04:20:49;13.18;;;6.95;;
39032;SDS011;24794;51.982;5.878;2023-04-06T04:21:49;13.07;;;7.05;;
39032;SDS011;24794;51.982;5.878;2023-04-06T04:22:50;11.00;;;7.18;;
39032;SDS011;24794;51.982;5.878;2023-04-06T04:23:50;12.18;;;6.85;;
39032;SDS011;24794;51.982;5.878;2023-04-06T04:24:52;13.27;;;7.55;;
39032;SDS011;24794;51.982;5.878;2023-04-06T04:25:53;12.07;;;6.20;;
39032;SDS011;24794;51.982;5.878;2023-04-06T04:26:53;10.45;;;7.13;;
39032;SDS011;24794;51.982;5.878;2023-04-06T04:27:55;13.40;;;7.75;;
39032;SDS011;24794;51.982;5.878;2023-04-06T04:28:55;12.02;;;7.18;;
39032;SDS011;24794;51.982;5.878;2023-04-06T04:29:56;13.65;;;7.88;;
39032;SDS011;24794;51.982;5.878;2023-04-06T04:30:56;12.60;;;7.75;;
39032;SDS011;24794;51.982;5.878;2023-04-06T04:31:57;11.32;;;6.85;;
39032;SDS011;24794;51.982;5.878;2023-04-06T04:32:58;10.23;;;6.13;;
39032;SDS011;24794;51.982;5.878;2023-04-06T04:33:59;12.98;;;7.10;;
39032;SDS011;24794;51.982;5.878;2023-04-06T04:35:00;9.30;;;5.85;;
39032;SDS011;24794;51.982;5.878;2023-04-06T04:37:03;10.60;;;6.38;;
39032;SDS011;24794;51.982;5.878;2023-04-06T04:38:04;11.50;;;6.93;;
39032;SDS011;24794;51.982;5.878;2023-04-06T04:39:05;12.57;;;7.65;;
39032;SDS011;24794;51.982;5.878;2023-04-06T04:40:05;12.27;;;7.65;;
39032;SDS011;24794;51.982;5.878;2023-04-06T04:41:06;14.05;;;7.88;;
39032;SDS011;24794;51.982;5.878;2023-04-06T04:42:07;10.60;;;6.40;;
39032;SDS011;24794;51.982;5.878;2023-04-06T04:43:07;12.02;;;6.82;;
39032;SDS011;24794;51.982;5.878;2023-04-06T04:44:08;10.55;;;7.10;;
39032;SDS011;24794;51.982;5.878;2023-04-06T04:45:09;14.38;;;7.10;;
39032;SDS011;24794;51.982;5.878;2023-04-06T04:46:10;10.80;;;6.50;;
39032;SDS011;24794;51.982;5.878;2023-04-06T04:47:10;13.57;;;7.85;;
39032;SDS011;24794;51.982;5.878;2023-04-06T04:48:11;13.20;;;7.93;;
39032;SDS011;24794;51.982;5.878;2023-04-06T04:49:12;11.60;;;7.45;;
39032;SDS011;24794;51.982;5.878;2023-04-06T04:50:12;10.68;;;6.40;;
39032;SDS011;24794;51.982;5.878;2023-04-06T04:51:13;11.73;;;7.57;;
39032;SDS011;24794;51.982;5.878;2023-04-06T04:52:13;11.98;;;7.30;;
39032;SDS011;24794;51.982;5.878;2023-04-06T04:53:14;12.05;;;7.95;;
39032;SDS011;24794;51.982;5.878;2023-04-06T04:54:14;11.77;;;7.22;;
39032;SDS011;24794;51.982;5.878;2023-04-06T04:55:15;11.63;;;7.72;;
39032;SDS011;24794;51.982;5.878;2023-04-06T04:56:17;12.90;;;6.93;;
39032;SDS011;24794;51.982;5.878;2023-04-06T04:57:18;12.10;;;8.00;;
39032;SDS011;24794;51.982;5.878;2023-04-06T04:58:18;14.02;;;8.13;;
39032;SDS011;24794;51.982;5.878;2023-04-06T04:59:19;13.65;;;7.90;;
39032;SDS011;24794;51.982;5.878;2023-04-06T05:00:20;13.15;;;8.32;;
39032;SDS011;24794;51.982;5.878;2023-04-06T05:01:21;14.13;;;9.13;;
39032;SDS011;24794;51.982;5.878;2023-04-06T05:02:21;15.70;;;7.70;;
39032;SDS011;24794;51.982;5.878;2023-04-06T05:03:23;14.73;;;8.90;;
39032;SDS011;24794;51.982;5.878;2023-04-06T05:04:25;13.93;;;7.90;;
39032;SDS011;24794;51.982;5.878;2023-04-06T05:05:26;12.48;;;7.57;;
39032;SDS011;24794;51.982;5.878;2023-04-06T05:06:26;12.70;;;7.20;;
39032;SDS011;24794;51.982;5.878;2023-04-06T05:07:27;12.25;;;7.90;;
39032;SDS011;24794;51.982;5.878;2023-04-06T05:08:27;12.95;;;7.78;;
39032;SDS011;24794;51.982;5.878;2023-04-06T05:09:29;15.13;;;8.00;;
39032;SDS011;24794;51.982;5.878;2023-04-06T05:10:30;14.38;;;8.10;;
39032;SDS011;24794;51.982;5.878;2023-04-06T05:11:31;14.93;;;8.07;;
39032;SDS011;24794;51.982;5.878;2023-04-06T05:12:32;13.23;;;7.80;;
39032;SDS011;24794;51.982;5.878;2023-04-06T05:13:32;13.38;;;7.85;;
39032;SDS011;24794;51.982;5.878;2023-04-06T05:14:33;17.13;;;8.27;;
39032;SDS011;24794;51.982;5.878;2023-04-06T05:15:33;12.55;;;7.97;;
39032;SDS011;24794;51.982;5.878;2023-04-06T05:16:40;12.23;;;7.65;;
39032;SDS011;24794;51.982;5.878;2023-04-06T05:17:40;11.48;;;7.13;;
39032;SDS011;24794;51.982;5.878;2023-04-06T05:18:41;11.60;;;7.22;;
39032;SDS011;24794;51.982;5.878;2023-04-06T05:19:42;13.07;;;7.45;;
39032;SDS011;24794;51.982;5.878;2023-04-06T05:20:43;15.30;;;8.23;;
39032;SDS011;24794;51.982;5.878;2023-04-06T05:21:43;13.85;;;7.40;;
39032;SDS011;24794;51.982;5.878;2023-04-06T05:22:44;14.35;;;7.93;;
39032;SDS011;24794;51.982;5.878;2023-04-06T05:23:44;12.27;;;7.78;;
39032;SDS011;24794;51.982;5.878;2023-04-06T05:24:45;15.32;;;8.73;;
39032;SDS011;24794;51.982;5.878;2023-04-06T05:25:45;13.82;;;8.48;;
39032;SDS011;24794;51.982;5.878;2023-04-06T05:26:46;17.65;;;8.48;;
39032;SDS011;24794;51.982;5.878;2023-04-06T05:27:47;13.60;;;7.90;;
39032;SDS011;24794;51.982;5.878;2023-04-06T05:28:47;13.05;;;8.45;;
39032;SDS011;24794;51.982;5.878;2023-04-06T05:29:48;14.30;;;8.25;;
39032;SDS011;24794;51.982;5.878;2023-04-06T05:30:49;11.93;;;8.07;;
39032;SDS011;24794;51.982;5.878;2023-04-06T05:31:50;13.40;;;8.57;;
39032;SDS011;24794;51.982;5.878;2023-04-06T05:32:51;14.57;;;8.43;;
39032;SDS011;24794;51.982;5.878;2023-04-06T05:33:51;12.75;;;8.10;;
39032;SDS011;24794;51.982;5.878;2023-04-06T05:34:52;13.65;;;8.30;;
39032;SDS011;24794;51.982;5.878;2023-04-06T05:35:52;11.57;;;7.10;;
39032;SDS011;24794;51.982;5.878;2023-04-06T05:36:53;12.13;;;7.68;;
39032;SDS011;24794;51.982;5.878;2023-04-06T05:37:54;15.20;;;8.27;;
39032;SDS011;24794;51.982;5.878;2023-04-06T05:38:54;15.15;;;8.50;;
39032;SDS011;24794;51.982;5.878;2023-04-06T05:39:55;13.20;;;7.78;;
39032;SDS011;24794;51.982;5.878;2023-04-06T05:40:56;16.45;;;8.50;;
39032;SDS011;24794;51.982;5.878;2023-04-06T05:41:56;12.68;;;8.20;;
39032;SDS011;24794;51.982;5.878;2023-04-06T05:42:57;13.68;;;7.88;;
39032;SDS011;24794;51.982;5.878;2023-04-06T05:43:57;16.42;;;8.57;;
39032;SDS011;24794;51.982;5.878;2023-04-06T05:44:58;16.55;;;8.90;;
39032;SDS011;24794;51.982;5.878;2023-04-06T05:45:59;14.68;;;8.93;;
39032;SDS011;24794;51.982;5.878;2023-04-06T05:46:59;17.08;;;8.43;;
39032;SDS011;24794;51.982;5.878;2023-04-06T05:48:00;15.82;;;8.80;;
39032;SDS011;24794;51.982;5.878;2023-04-06T05:49:02;13.40;;;7.72;;
39032;SDS011;24794;51.982;5.878;2023-04-06T05:50:02;13.70;;;7.93;;
39032;SDS011;24794;51.982;5.878;2023-04-06T05:51:03;15.98;;;8.50;;
39032;SDS011;24794;51.982;5.878;2023-04-06T05:52:06;13.80;;;7.60;;
39032;SDS011;24794;51.982;5.878;2023-04-06T05:53:06;16.35;;;9.13;;
39032;SDS011;24794;51.982;5.878;2023-04-06T05:54:07;15.02;;;8.07;;
39032;SDS011;24794;51.982;5.878;2023-04-06T05:55:07;13.38;;;7.93;;
39032;SDS011;24794;51.982;5.878;2023-04-06T05:56:11;16.25;;;8.50;;
39032;SDS011;24794;51.982;5.878;2023-04-06T05:57:11;15.20;;;9.18;;
39032;SDS011;24794;51.982;5.878;2023-04-06T05:58:12;13.70;;;7.95;;
39032;SDS011;24794;51.982;5.878;2023-04-06T05:59:12;13.73;;;8.00;;
39032;SDS011;24794;51.982;5.878;2023-04-06T06:00:13;14.57;;;7.47;;
39032;SDS011;24794;51.982;5.878;2023-04-06T06:01:14;14.80;;;8.15;;
39032;SDS011;24794;51.982;5.878;2023-04-06T06:02:15;13.20;;;7.88;;
39032;SDS011;24794;51.982;5.878;2023-04-06T06:03:16;18.70;;;8.45;;
39032;SDS011;24794;51.982;5.878;2023-04-06T06:04:16;15.38;;;7.85;;